createdAt,value
2018-04-02T00:01:20.491Z,99.90
2018-04-02T00:03:51.462Z,99.90
2018-04-02T00:06:22.271Z,99.90
2018-04-02T00:08:52.409Z,99.90
2018-04-02T00:11:23.236Z,99.90
2018-04-02T00:13:54.183Z,99.90
2018-04-02T00:16:25.059Z,99.90
2018-04-02T00:18:55.139Z,99.90
2018-04-02T00:21:25.223Z,99.90
2018-04-02T00:23:55.304Z,99.90
2018-04-02T00:26:26.064Z,99.90
2018-04-02T00:28:56.217Z,99.90
2018-04-02T00:31:27.068Z,99.90
2018-04-02T00:33:57.143Z,99.90
2018-04-02T00:36:27.175Z,99.90
2018-04-02T00:38:57.175Z,99.80
2018-04-02T00:41:27.258Z,99.90
2018-04-02T00:43:58.078Z,99.80
2018-04-02T00:46:28.031Z,99.80
2018-04-02T00:48:58.055Z,99.90
2018-04-02T00:51:28.903Z,99.90
2018-04-02T00:53:59.738Z,99.90
2018-04-02T00:56:29.715Z,99.90
2018-04-02T00:58:59.743Z,99.60
2018-04-02T01:01:29.824Z,99.60
2018-04-02T01:04:00.739Z,99.90
2018-04-02T01:06:30.739Z,99.90
2018-04-02T01:09:01.383Z,99.90
2018-04-02T01:11:32.352Z,99.90
2018-04-02T01:14:03.383Z,99.90
2018-04-02T01:16:34.091Z,99.70
2018-04-02T01:19:04.175Z,99.60
2018-04-02T01:21:34.137Z,99.70
2018-04-02T01:24:04.253Z,99.30
2018-04-02T01:26:35.026Z,99.40
2018-04-02T01:29:05.935Z,99.60
2018-04-02T01:31:36.699Z,99.90
2018-04-02T01:34:08.458Z,99.90
2018-04-02T01:36:39.303Z,99.90
2018-04-02T01:39:09.258Z,99.90
2018-04-02T01:41:39.267Z,99.90
2018-04-02T01:44:09.260Z,99.80
2018-04-02T01:46:39.353Z,99.10
2018-04-02T01:49:10.188Z,98.90
2018-04-02T01:51:40.176Z,98.90
2018-04-02T01:54:10.214Z,98.60
2018-04-02T01:56:41.191Z,99.50
2018-04-02T01:59:11.254Z,99.50
2018-04-02T02:01:41.218Z,99.50
2018-04-02T02:04:11.231Z,99.90
2018-04-02T02:06:41.266Z,99.90
2018-04-02T02:09:11.295Z,99.90
2018-04-02T02:11:41.343Z,99.90
2018-04-02T02:14:12.190Z,99.90
2018-04-02T02:16:42.331Z,99.90
2018-04-02T02:19:13.215Z,99.90
2018-04-02T02:21:44.206Z,99.90
2018-04-02T02:24:14.899Z,99.60
2018-04-02T02:26:44.819Z,99.60
2018-04-02T02:29:14.815Z,99.70
2018-04-02T02:31:44.811Z,99.70
2018-04-02T02:34:14.780Z,99.70
2018-04-02T02:36:45.615Z,99.90
2018-04-02T02:39:16.339Z,99.90
2018-04-02T02:41:47.848Z,99.90
2018-04-02T02:44:18.735Z,99.90
2018-04-02T02:46:49.511Z,99.90
2018-04-02T02:49:19.499Z,99.90
2018-04-02T02:51:50.296Z,99.90
2018-04-02T02:54:20.291Z,99.90
2018-04-02T02:56:50.224Z,99.90
2018-04-02T02:59:20.980Z,99.90
2018-04-02T03:01:51.744Z,99.90
2018-04-02T03:04:21.699Z,99.90
2018-04-02T03:06:53.458Z,99.90
2018-04-02T03:09:24.221Z,99.90
2018-04-02T03:11:55.739Z,99.90
2018-04-02T03:14:26.699Z,99.90
2018-04-02T03:16:56.650Z,99.90
2018-04-02T03:19:26.594Z,99.90
2018-04-02T03:21:56.619Z,99.90
2018-04-02T03:24:26.622Z,99.90
2018-04-02T03:26:57.496Z,99.90
2018-04-02T03:29:28.298Z,99.60
2018-04-02T03:31:58.303Z,99.60
2018-04-02T03:34:28.261Z,99.30
2018-04-02T03:36:58.264Z,98.90
2018-04-02T03:39:28.250Z,99.10
2018-04-02T03:41:58.730Z,99.20
2018-04-02T03:44:29.581Z,98.90
2018-04-02T03:46:59.494Z,98.80
2018-04-02T03:49:29.491Z,99.60
2018-04-02T03:52:00.380Z,99.90
2018-04-02T03:54:30.370Z,99.90
2018-04-02T03:57:01.134Z,99.90
2018-04-02T03:59:31.103Z,99.90
2018-04-02T04:02:01.067Z,99.90
2018-04-02T04:04:31.332Z,99.90
2018-04-02T04:07:01.299Z,99.90
2018-04-02T04:09:31.372Z,99.90
2018-04-02T04:12:01.375Z,99.90
2018-04-02T04:14:31.300Z,99.90
2018-04-02T04:17:01.216Z,99.90
2018-04-02T04:19:31.983Z,99.90
2018-04-02T04:22:02.738Z,99.90
2018-04-02T04:24:32.776Z,99.90
2018-04-02T04:27:02.819Z,99.90
2018-04-02T04:29:33.580Z,99.90
2018-04-02T04:32:04.420Z,99.90
2018-04-02T04:34:34.375Z,99.90
2018-04-02T04:37:04.300Z,99.90
2018-04-02T04:39:34.333Z,99.90
2018-04-02T04:42:05.139Z,99.60
2018-04-02T04:44:35.051Z,99.60
2018-04-02T04:47:05.775Z,99.90
2018-04-02T04:49:36.620Z,99.90
2018-04-02T04:52:06.660Z,99.90
2018-04-02T04:54:37.501Z,99.90
2018-04-02T04:57:07.434Z,99.90
2018-04-02T04:59:37.544Z,99.90
2018-04-02T05:02:08.253Z,99.90
2018-04-02T05:04:38.370Z,99.90
2018-04-02T05:07:08.380Z,99.90
2018-04-02T05:09:38.412Z,99.90
2018-04-02T05:12:09.300Z,99.50
2018-04-02T05:14:40.096Z,99.90
2018-04-02T05:17:10.976Z,99.90
2018-04-02T05:19:40.977Z,99.90
2018-04-02T05:22:11.017Z,99.80
2018-04-02T05:24:41.971Z,99.90
2018-04-02T05:27:11.936Z,99.90
2018-04-02T05:29:42.705Z,99.90
2018-04-02T05:32:12.700Z,99.90
2018-04-02T05:34:43.492Z,99.90
2018-04-02T05:37:13.542Z,99.90
2018-04-02T05:39:44.436Z,99.70
2018-04-02T05:42:15.093Z,99.90
2018-04-02T05:44:45.176Z,99.90
2018-04-02T05:47:15.175Z,99.90
2018-04-02T05:49:45.220Z,99.90
2018-04-02T05:52:15.260Z,99.90
2018-04-02T05:54:45.180Z,99.90
2018-04-02T05:57:15.944Z,99.90
2018-04-02T05:59:46.827Z,99.90
2018-04-02T06:02:16.859Z,99.90
2018-04-02T06:04:47.707Z,99.90
2018-04-02T06:07:18.532Z,99.90
2018-04-02T06:09:49.369Z,99.90
2018-04-02T06:12:20.143Z,99.90
2018-04-02T06:14:50.979Z,99.90
2018-04-02T06:17:21.824Z,99.90
2018-04-02T06:19:52.654Z,99.90
2018-04-02T06:22:24.276Z,99.90
2018-04-02T06:24:55.064Z,99.90
2018-04-02T06:27:25.064Z,99.90
2018-04-02T06:29:55.810Z,99.90
2018-04-02T06:32:26.714Z,99.90
2018-04-02T06:34:57.592Z,99.90
2018-04-02T06:37:27.692Z,99.90
2018-04-02T06:39:57.636Z,99.90
2018-04-02T06:42:27.667Z,99.90
2018-04-02T06:44:57.576Z,99.90
2018-04-02T06:47:27.499Z,99.90
2018-04-02T06:50:03.278Z,99.90
2018-04-02T06:52:38.647Z,99.90
2018-04-02T06:55:14.223Z,99.90
2018-04-02T06:57:49.771Z,99.90
2018-04-02T07:00:25.175Z,99.90
2018-04-02T07:02:56.297Z,99.90
2018-04-02T07:05:27.019Z,99.90
2018-04-02T07:07:56.948Z,99.90
2018-04-02T07:10:27.694Z,99.90
2018-04-02T07:12:58.415Z,99.90
2018-04-02T07:15:29.892Z,99.90
2018-04-02T07:17:59.855Z,99.90
2018-04-02T07:20:29.818Z,99.90
2018-04-02T07:23:00.484Z,99.30
2018-04-02T07:25:31.216Z,99.20
2018-04-02T07:28:02.172Z,98.60
2018-04-02T07:30:32.051Z,97.70
2018-04-02T07:33:01.979Z,97.00
2018-04-02T07:35:32.779Z,96.50
2018-04-02T07:38:03.579Z,96.30
2018-04-02T07:40:33.655Z,96.30
2018-04-02T07:43:03.646Z,95.90
2018-04-02T07:45:33.539Z,96.80
2018-04-02T07:48:03.611Z,95.50
2018-04-02T07:50:33.801Z,94.30
2018-04-02T07:53:04.720Z,94.50
2018-04-02T07:55:35.530Z,95.60
2018-04-02T07:58:05.751Z,95.60
2018-04-02T08:00:36.775Z,93.00
2018-04-02T08:03:06.826Z,93.00
2018-04-02T08:05:36.976Z,92.30
2018-04-02T08:08:07.823Z,91.00
2018-04-02T08:10:37.901Z,91.00
2018-04-02T08:13:13.539Z,89.30
2018-04-02T08:15:49.720Z,90.20
2018-04-02T08:18:25.099Z,90.10
2018-04-02T08:21:00.618Z,81.90
2018-04-02T08:23:36.220Z,77.70
2018-04-02T08:26:06.259Z,75.70
2018-04-02T08:28:37.500Z,73.20
2018-04-02T08:31:08.333Z,72.20
2018-04-02T08:33:43.890Z,72.30
2018-04-02T08:36:19.495Z,69.80
2018-04-02T08:38:50.413Z,69.80
2018-04-02T08:41:20.375Z,69.60
2018-04-02T08:43:51.253Z,68.10
2018-04-02T08:46:22.072Z,66.20
2018-04-02T08:48:52.132Z,65.90
2018-04-02T08:51:22.229Z,66.60
2018-04-02T08:53:53.106Z,67.00
2018-04-02T08:56:23.174Z,67.00
2018-04-02T08:58:54.061Z,64.90
2018-04-02T09:01:25.250Z,66.60
2018-04-02T09:03:55.342Z,66.60
2018-04-02T09:06:26.223Z,63.50
2018-04-02T09:08:57.066Z,63.60
2018-04-02T09:11:27.102Z,64.20
2018-04-02T09:13:57.103Z,65.00
2018-04-02T09:16:27.070Z,66.10
2018-04-02T09:18:57.918Z,62.40
2018-04-02T09:21:28.745Z,63.60
2018-04-02T09:23:59.583Z,62.90
2018-04-02T09:26:31.095Z,60.40
2018-04-02T09:29:01.135Z,60.30
2018-04-02T09:31:31.172Z,57.70
2018-04-02T09:34:02.028Z,58.10
2018-04-02T09:36:31.973Z,58.00
2018-04-02T09:39:02.075Z,58.40
2018-04-02T09:41:32.859Z,57.00
2018-04-02T09:44:03.700Z,56.40
2018-04-02T09:46:33.697Z,56.40
2018-04-02T09:49:04.491Z,54.50
2018-04-02T09:51:35.262Z,57.70
2018-04-02T09:54:05.301Z,57.70
2018-04-02T09:56:35.463Z,52.00
2018-04-02T09:59:06.300Z,52.10
2018-04-02T10:01:36.345Z,52.00
2018-04-02T10:04:09.020Z,52.20
2018-04-02T10:06:39.979Z,51.80
2018-04-02T10:09:10.871Z,52.80
2018-04-02T10:11:41.659Z,51.70
2018-04-02T10:14:12.494Z,51.90
2018-04-02T10:16:42.503Z,51.90
2018-04-02T10:19:13.372Z,50.30
2018-04-02T10:21:44.222Z,51.90
2018-04-02T10:24:14.218Z,51.80
2018-04-02T10:26:44.272Z,53.80
2018-04-02T10:29:14.388Z,51.20
2018-04-02T10:31:45.272Z,44.90
2018-04-02T10:34:15.545Z,44.70
2018-04-02T10:36:46.458Z,42.50
2018-04-02T10:39:16.739Z,45.10
2018-04-02T10:41:46.864Z,45.40
2018-04-02T10:44:17.145Z,41.10
2018-04-02T10:46:48.131Z,44.00
2018-04-02T10:49:19.384Z,45.90
2018-04-02T10:51:49.534Z,45.90
2018-04-02T10:54:19.657Z,47.20
2018-04-02T10:56:49.907Z,44.60
2018-04-02T10:59:20.776Z,44.00
2018-04-02T11:01:50.820Z,44.00
2018-04-02T11:04:21.576Z,40.90
2018-04-02T11:06:51.683Z,40.90
2018-04-02T11:09:21.776Z,41.80
2018-04-02T11:11:52.140Z,43.70
2018-04-02T11:14:22.143Z,41.30
2018-04-02T11:16:52.977Z,41.20
2018-04-02T11:19:23.864Z,43.50
2018-04-02T11:21:53.857Z,43.50
2018-04-02T11:24:23.949Z,46.20
2018-04-02T11:26:54.015Z,39.00
2018-04-02T11:29:24.912Z,40.40
2018-04-02T11:31:55.894Z,38.60
2018-04-02T11:34:26.017Z,38.60
2018-04-02T11:36:57.111Z,39.20
2018-04-02T11:39:27.219Z,39.20
2018-04-02T11:41:57.295Z,39.70
2018-04-02T11:44:28.148Z,41.70
2018-04-02T11:46:59.032Z,35.70
2018-04-02T11:49:29.151Z,35.70
2018-04-02T11:51:59.253Z,38.80
2018-04-02T11:54:30.052Z,40.50
2018-04-02T11:57:01.704Z,40.10
2018-04-02T11:59:31.772Z,40.10
2018-04-02T12:02:01.801Z,35.00
2018-04-02T12:04:31.808Z,36.70
2018-04-02T12:07:01.769Z,39.70
2018-04-02T12:09:31.668Z,38.50
2018-04-02T12:12:02.353Z,36.40
2018-04-02T12:14:32.285Z,39.10
2018-04-02T12:17:02.295Z,37.90
2018-04-02T12:19:32.306Z,35.70
2018-04-02T12:22:02.954Z,37.20
2018-04-02T12:24:32.941Z,37.30
2018-04-02T12:27:03.642Z,36.20
2018-04-02T12:29:33.545Z,36.10
2018-04-02T12:32:03.433Z,33.90
2018-04-02T12:34:34.196Z,33.90
2018-04-02T12:37:04.118Z,33.90
2018-04-02T12:39:34.900Z,31.40
2018-04-02T12:42:04.816Z,31.10
2018-04-02T12:44:35.490Z,35.60
2018-04-02T12:47:05.387Z,35.60
2018-04-02T12:49:35.333Z,36.20
2018-04-02T12:52:05.243Z,33.10
2018-04-02T12:54:35.130Z,31.00
2018-04-02T12:57:05.057Z,34.10
2018-04-02T12:59:35.043Z,34.30
2018-04-02T13:02:04.996Z,37.20
2018-04-02T13:04:35.818Z,36.00
2018-04-02T13:07:06.548Z,38.90
2018-04-02T13:09:37.314Z,38.80
2018-04-02T13:12:08.006Z,40.70
2018-04-02T13:14:37.893Z,40.60
2018-04-02T13:17:08.558Z,47.90
2018-04-02T13:19:40.234Z,46.70
2018-04-02T13:22:10.077Z,46.70
2018-04-02T13:24:42.932Z,43.30
2018-04-02T13:27:13.658Z,42.80
2018-04-02T13:29:44.354Z,39.60
2018-04-02T13:32:15.933Z,48.40
2018-04-02T13:34:46.581Z,47.30
2018-04-02T13:37:18.845Z,47.30
2018-04-02T13:39:49.805Z,45.40
2018-04-02T13:42:20.646Z,47.50
2018-04-02T13:44:51.353Z,46.00
2018-04-02T13:47:21.222Z,46.00
2018-04-02T13:49:51.885Z,48.00
2018-04-02T13:52:21.734Z,47.90
2018-04-02T13:54:51.617Z,41.30
2018-04-02T13:57:22.529Z,52.80
2018-04-02T13:59:53.290Z,48.40
2018-04-02T14:02:23.161Z,48.40
2018-04-02T14:04:53.825Z,53.00
2018-04-02T14:07:23.774Z,52.90
2018-04-02T14:09:53.682Z,42.90
2018-04-02T14:12:23.530Z,34.60
2018-04-02T14:14:53.458Z,37.10
2018-04-02T14:17:23.389Z,34.90
2018-04-02T14:19:53.271Z,34.20
2018-04-02T14:22:24.049Z,34.40
2018-04-02T14:24:53.982Z,34.30
2018-04-02T14:27:25.492Z,35.30
2018-04-02T14:29:55.547Z,35.30
2018-04-02T14:32:25.453Z,38.20
2018-04-02T14:34:56.154Z,41.10
2018-04-02T14:37:26.030Z,41.10
2018-04-02T14:39:56.802Z,41.60
2018-04-02T14:42:27.553Z,42.50
2018-04-02T14:44:57.497Z,42.50
2018-04-02T14:47:28.186Z,44.40
2018-04-02T14:49:58.097Z,44.40
2018-04-02T14:52:28.725Z,44.90
2018-04-02T14:54:58.684Z,44.90
2018-04-02T14:57:29.108Z,46.50
2018-04-02T15:00:00.465Z,44.20
2018-04-02T15:02:33.269Z,45.00
2018-04-02T15:05:03.210Z,44.80
2018-04-02T15:07:33.896Z,45.40
2018-04-02T15:10:04.011Z,45.80
2018-04-02T15:12:35.041Z,48.70
2018-04-02T15:15:05.783Z,48.60
2018-04-02T15:17:35.891Z,49.50
2018-04-02T15:20:05.919Z,48.10
2018-04-02T15:22:37.843Z,49.20
2018-04-02T15:25:07.897Z,45.90
2018-04-02T15:27:42.893Z,47.70
2018-04-02T15:30:14.045Z,49.40
2018-04-02T15:32:46.222Z,49.30
2018-04-02T15:35:17.311Z,49.80
2018-04-02T15:37:47.287Z,50.20
2018-04-02T15:40:17.289Z,52.10
2018-04-02T15:42:47.498Z,54.10
2018-04-02T15:45:18.524Z,55.60
2018-04-02T15:47:48.592Z,53.80
2018-04-02T15:50:18.481Z,56.30
2018-04-02T15:52:48.489Z,56.60
2018-04-02T15:55:18.332Z,54.70
2018-04-02T15:57:48.297Z,54.30
2018-04-02T16:00:18.252Z,53.30
2018-04-02T16:02:48.201Z,55.50
2018-04-02T16:05:19.041Z,55.50
2018-04-02T16:07:49.801Z,53.80
2018-04-02T16:10:21.009Z,55.50
2018-04-02T16:12:51.083Z,55.40
2018-04-02T16:15:21.841Z,56.70
2018-04-02T16:17:51.821Z,56.70
2018-04-02T16:20:21.770Z,59.40
2018-04-02T16:22:51.698Z,63.50
2018-04-02T16:25:22.401Z,60.80
2018-04-02T16:27:52.338Z,60.80
2018-04-02T16:30:22.362Z,59.90
2018-04-02T16:32:53.450Z,61.50
2018-04-02T16:35:25.737Z,62.40
2018-04-02T16:37:57.212Z,60.50
2018-04-02T16:40:28.076Z,62.70
2018-04-02T16:43:01.846Z,65.70
2018-04-02T16:45:34.663Z,66.70
2018-04-02T16:48:05.641Z,66.70
2018-04-02T16:50:35.567Z,64.40
2018-04-02T16:53:05.545Z,64.30
2018-04-02T16:55:36.418Z,64.40
2018-04-02T16:58:07.171Z,65.60
2018-04-02T17:00:37.138Z,65.50
2018-04-02T17:03:07.891Z,67.70
2018-04-02T17:05:37.852Z,67.60
2018-04-02T17:08:08.570Z,60.50
2018-04-02T17:10:39.644Z,64.40
2018-04-02T17:13:10.322Z,67.20
2018-04-02T17:15:40.258Z,67.10
2018-04-02T17:18:10.292Z,68.60
2018-04-02T17:20:41.130Z,64.90
2018-04-02T17:23:11.902Z,68.60
2018-04-02T17:25:42.657Z,67.60
2018-04-02T17:28:12.655Z,66.80
2018-04-02T17:30:42.572Z,64.20
2018-04-02T17:33:13.366Z,66.70
2018-04-02T17:35:44.091Z,68.30
2018-04-02T17:38:14.030Z,68.20
2018-04-02T17:40:44.814Z,70.20
2018-04-02T17:43:14.778Z,70.10
2018-04-02T17:45:45.449Z,68.10
2018-04-02T17:48:15.385Z,68.00
2018-04-02T17:50:46.130Z,65.50
2018-04-02T17:53:16.910Z,64.30
2018-04-02T17:55:47.765Z,62.00
2018-04-02T17:58:17.733Z,62.00
2018-04-02T18:00:48.533Z,61.70
2018-04-02T18:03:18.437Z,61.60
2018-04-02T18:05:49.217Z,61.40
2018-04-02T18:08:19.200Z,61.30
2018-04-02T18:10:49.962Z,60.90
2018-04-02T18:13:20.707Z,64.50
2018-04-02T18:15:51.417Z,65.10
2018-04-02T18:18:21.803Z,65.20
2018-04-02T18:20:51.737Z,67.90
2018-04-02T18:23:21.690Z,69.40
2018-04-02T18:25:51.647Z,67.20
2018-04-02T18:28:21.650Z,67.70
2018-04-02T18:30:52.402Z,69.40
2018-04-02T18:33:24.121Z,70.70
2018-04-02T18:35:54.836Z,71.80
2018-04-02T18:38:25.521Z,70.60
2018-04-02T18:40:56.177Z,71.30
2018-04-02T18:43:27.008Z,72.30
2018-04-02T18:45:57.219Z,72.10
2018-04-02T18:48:27.171Z,66.30
2018-04-02T18:50:57.130Z,63.60
2018-04-02T18:53:27.097Z,67.60
2018-04-02T18:55:57.013Z,67.60
2018-04-02T18:58:27.723Z,67.70
2018-04-02T19:00:58.290Z,67.60
2018-04-02T19:03:28.218Z,67.60
2018-04-02T19:05:58.888Z,66.60
2018-04-02T19:08:28.890Z,67.50
2018-04-02T19:10:59.565Z,68.00
2018-04-02T19:13:29.489Z,67.90
2018-04-02T19:15:59.418Z,69.10
2018-04-02T19:18:29.293Z,70.70
2018-04-02T19:21:00.097Z,72.00
2018-04-02T19:23:30.010Z,71.90
2018-04-02T19:26:00.763Z,72.90
2018-04-02T19:28:31.408Z,72.50
2018-04-02T19:31:01.366Z,72.50
2018-04-02T19:33:32.122Z,71.30
2018-04-02T19:36:02.884Z,73.10
2018-04-02T19:38:32.805Z,73.10
2018-04-02T19:41:02.689Z,73.50
2018-04-02T19:43:33.349Z,74.50
2018-04-02T19:46:03.287Z,74.40
2018-04-02T19:48:34.057Z,71.60
2018-04-02T19:51:04.741Z,74.20
2018-04-02T19:53:36.402Z,70.80
2018-04-02T19:56:06.298Z,70.80
2018-04-02T19:58:36.167Z,73.50
2018-04-02T20:01:06.250Z,74.90
2018-04-02T20:03:36.143Z,77.00
2018-04-02T20:06:06.879Z,76.20
2018-04-02T20:08:36.756Z,76.20
2018-04-02T20:11:07.601Z,74.70
2018-04-02T20:13:38.263Z,71.30
2018-04-02T20:16:08.870Z,71.30
2018-04-02T20:18:39.852Z,73.40
2018-04-02T20:21:09.760Z,73.40
2018-04-02T20:23:39.662Z,74.50
2018-04-02T20:26:10.451Z,72.70
2018-04-02T20:28:41.178Z,73.20
2018-04-02T20:31:11.850Z,73.70
2018-04-02T20:33:41.810Z,73.70
2018-04-02T20:36:12.610Z,76.00
2018-04-02T20:38:43.410Z,75.20
2018-04-02T20:41:13.324Z,74.60
2018-04-02T20:43:43.289Z,70.00
2018-04-02T20:46:13.201Z,68.00
2018-04-02T20:48:43.962Z,69.00
2018-04-02T20:51:14.739Z,69.30
2018-04-02T20:53:44.650Z,69.30
2018-04-02T20:56:15.285Z,71.20
2018-04-02T20:58:45.173Z,71.20
2018-04-02T21:01:15.931Z,73.40
2018-04-02T21:03:45.810Z,73.20
2018-04-02T21:06:15.770Z,74.20
2018-04-02T21:08:45.686Z,76.20
2018-04-02T21:11:15.608Z,76.40
2018-04-02T21:13:45.525Z,75.90
2018-04-02T21:16:16.738Z,73.10
2018-04-02T21:18:47.730Z,74.10
2018-04-02T21:21:18.698Z,74.80
2018-04-02T21:23:48.745Z,74.80
2018-04-02T21:26:18.657Z,75.00
2018-04-02T21:28:49.373Z,71.50
2018-04-02T21:31:20.076Z,71.90
2018-04-02T21:33:50.027Z,71.90
2018-04-02T21:36:19.971Z,73.90
2018-04-02T21:38:49.929Z,75.20
2018-04-02T21:41:20.650Z,71.60
2018-04-02T21:43:50.601Z,71.60
2018-04-02T21:46:21.334Z,73.90
2018-04-02T21:48:52.007Z,71.60
2018-04-02T21:51:21.962Z,71.50
2018-04-02T21:53:52.725Z,71.80
2018-04-02T21:56:22.642Z,71.80
2018-04-02T21:58:52.544Z,70.30
2018-04-02T22:01:22.577Z,63.00
2018-04-02T22:03:53.290Z,61.40
2018-04-02T22:06:41.770Z,57.40
2018-04-02T22:09:11.729Z,57.30
2018-04-02T22:11:41.722Z,54.70
2018-04-02T22:14:11.602Z,55.50
2018-04-02T22:16:41.563Z,56.10
2018-04-02T22:19:11.562Z,60.40
2018-04-02T22:21:42.329Z,58.50
2018-04-02T22:24:13.088Z,59.10
2018-04-02T22:26:43.082Z,59.00
2018-04-02T22:29:13.973Z,60.80
2018-04-02T22:31:44.730Z,60.80
2018-04-02T22:34:14.622Z,60.60
2018-04-02T22:36:44.781Z,57.10
2018-04-02T22:39:15.610Z,56.60
2018-04-02T22:41:45.468Z,56.50
2018-04-02T22:44:16.880Z,63.50
2018-04-02T22:46:46.857Z,63.40
2018-04-02T22:49:16.802Z,66.40
2018-04-02T22:51:47.642Z,58.00
2018-04-02T22:54:18.370Z,60.20
2018-04-02T22:56:48.329Z,60.20
2018-04-02T22:59:18.840Z,64.10
2018-04-02T23:01:49.641Z,54.10
2018-04-02T23:04:19.620Z,54.00
2018-04-02T23:06:49.569Z,54.00
2018-04-02T23:09:20.281Z,57.00
2018-04-02T23:11:50.324Z,57.00
2018-04-02T23:14:21.138Z,57.50
2018-04-02T23:16:51.932Z,55.40
2018-04-02T23:19:23.584Z,58.80
2018-04-02T23:21:54.249Z,61.70
2018-04-02T23:24:24.126Z,61.60
2018-04-02T23:26:54.840Z,61.30
2018-04-02T23:29:25.552Z,57.70
2018-04-02T23:31:55.441Z,57.70
2018-04-02T23:34:25.406Z,57.60
2018-04-02T23:36:56.089Z,58.00
2018-04-02T23:39:26.009Z,57.90
2018-04-02T23:41:55.882Z,54.90
2018-04-02T23:44:26.578Z,57.00
2018-04-02T23:46:57.280Z,52.20
2018-04-02T23:49:27.201Z,52.10
2018-04-02T23:51:57.937Z,53.50
2018-04-02T23:54:27.857Z,53.40
2018-04-02T23:56:57.696Z,54.00
2018-04-02T23:59:28.462Z,57.30
